sensor_id;sensor_type;location;lat;lon;timestamp;pressure;altitude;pressure_sealevel;temperature;humidity
59443;BME280;45247;47.466;19.004;2023-01-09T00:01:28;99302.00;;;5.32;100.00
59443;BME280;45247;47.466;19.004;2023-01-09T00:03:58;99295.94;;;5.31;100.00
59443;BME280;45247;47.466;19.004;2023-01-09T00:06:27;99298.31;;;5.36;100.00
59443;BME280;45247;47.466;19.004;2023-01-09T00:08:55;99305.47;;;5.32;100.00
59443;BME280;45247;47.466;19.004;2023-01-09T00:11:23;99306.53;;;5.28;100.00
59443;BME280;45247;47.466;19.004;2023-01-09T00:13:51;99302.22;;;5.27;100.00
59443;BME280;45247;47.466;19.004;2023-01-09T00:16:19;99297.28;;;5.21;100.00
59443;BME280;45247;47.466;19.004;2023-01-09T00:18:48;99294.78;;;5.18;100.00
59443;BME280;45247;47.466;19.004;2023-01-09T00:21:18;99289.09;;;5.10;100.00
59443;BME280;45247;47.466;19.004;2023-01-09T00:23:47;99290.06;;;5.07;100.00
59443;BME280;45247;47.466;19.004;2023-01-09T00:26:17;99289.38;;;5.03;100.00
59443;BME280;45247;47.466;19.004;2023-01-09T00:28:47;99284.13;;;5.03;100.00
59443;BME280;45247;47.466;19.004;2023-01-09T00:31:17;99286.75;;;5.03;100.00
59443;BME280;45247;47.466;19.004;2023-01-09T00:33:49;99281.72;;;4.99;100.00
59443;BME280;45247;47.466;19.004;2023-01-09T00:36:21;99282.78;;;4.95;100.00
59443;BME280;45247;47.466;19.004;2023-01-09T00:38:49;99283.50;;;4.98;100.00
59443;BME280;45247;47.466;19.004;2023-01-09T00:41:20;99283.50;;;4.98;100.00
59443;BME280;45247;47.466;19.004;2023-01-09T00:43:52;99278.13;;;5.01;100.00
59443;BME280;45247;47.466;19.004;2023-01-09T00:46:25;99276.41;;;5.00;100.00
59443;BME280;45247;47.466;19.004;2023-01-09T00:48:56;99280.44;;;5.08;100.00
59443;BME280;45247;47.466;19.004;2023-01-09T00:51:26;99276.19;;;5.05;100.00
59443;BME280;45247;47.466;19.004;2023-01-09T00:53:55;99271.69;;;5.09;100.00
59443;BME280;45247;47.466;19.004;2023-01-09T00:56:24;99266.44;;;5.09;100.00
59443;BME280;45247;47.466;19.004;2023-01-09T00:58:52;99261.84;;;5.14;100.00
59443;BME280;45247;47.466;19.004;2023-01-09T01:01:21;99265.13;;;5.19;100.00
59443;BME280;45247;47.466;19.004;2023-01-09T01:03:49;99246.94;;;5.16;100.00
59443;BME280;45247;47.466;19.004;2023-01-09T01:06:17;99259.03;;;5.18;100.00
59443;BME280;45247;47.466;19.004;2023-01-09T01:09:05;99249.56;;;5.16;100.00
59443;BME280;45247;47.466;19.004;2023-01-09T01:11:33;99248.97;;;5.09;100.00
59443;BME280;45247;47.466;19.004;2023-01-09T01:14:01;99261.09;;;5.12;100.00
59443;BME280;45247;47.466;19.004;2023-01-09T01:16:31;99248.97;;;5.09;100.00
59443;BME280;45247;47.466;19.004;2023-01-09T01:18:59;99242.38;;;5.02;100.00
59443;BME280;45247;47.466;19.004;2023-01-09T01:21:27;99252.25;;;4.95;100.00
59443;BME280;45247;47.466;19.004;2023-01-09T01:23:55;99246.09;;;4.96;100.00
59443;BME280;45247;47.466;19.004;2023-01-09T01:26:25;99253.94;;;4.96;100.00
59443;BME280;45247;47.466;19.004;2023-01-09T01:28:53;99238.25;;;4.96;100.00
59443;BME280;45247;47.466;19.004;2023-01-09T01:31:21;99235.63;;;4.96;100.00
59443;BME280;45247;47.466;19.004;2023-01-09T01:33:49;99239.97;;;4.97;100.00
59443;BME280;45247;47.466;19.004;2023-01-09T01:36:18;99231.75;;;5.05;100.00
59443;BME280;45247;47.466;19.004;2023-01-09T01:38:46;99223.53;;;5.13;100.00
59443;BME280;45247;47.466;19.004;2023-01-09T01:41:14;99224.09;;;5.19;100.00
59443;BME280;45247;47.466;19.004;2023-01-09T01:43:58;99218.94;;;5.35;100.00
59443;BME280;45247;47.466;19.004;2023-01-09T01:46:27;99216.75;;;5.45;100.00
59443;BME280;45247;47.466;19.004;2023-01-09T01:49:02;99212.22;;;5.48;100.00
59443;BME280;45247;47.466;19.004;2023-01-09T01:51:35;99209.28;;;5.55;100.00
59443;BME280;45247;47.466;19.004;2023-01-09T01:54:07;99199.41;;;5.60;100.00
59443;BME280;45247;47.466;19.004;2023-01-09T01:56:41;99198.19;;;5.67;100.00
59443;BME280;45247;47.466;19.004;2023-01-09T01:59:18;99199.41;;;5.77;100.00
59443;BME280;45247;47.466;19.004;2023-01-09T02:01:51;99200.97;;;5.81;100.00
59443;BME280;45247;47.466;19.004;2023-01-09T02:04:20;99193.78;;;5.85;100.00
59443;BME280;45247;47.466;19.004;2023-01-09T02:06:51;99191.03;;;5.88;100.00
59443;BME280;45247;47.466;19.004;2023-01-09T02:09:20;99186.47;;;5.91;100.00
59443;BME280;45247;47.466;19.004;2023-01-09T02:11:53;99190.44;;;6.00;100.00
59443;BME280;45247;47.466;19.004;2023-01-09T02:14:29;99186.28;;;6.12;100.00
59443;BME280;45247;47.466;19.004;2023-01-09T02:17:05;99180.91;;;6.15;100.00
59443;BME280;45247;47.466;19.004;2023-01-09T02:20:05;99167.56;;;6.19;100.00
59443;BME280;45247;47.466;19.004;2023-01-09T02:22:50;99166.63;;;6.20;100.00
59443;BME280;45247;47.466;19.004;2023-01-09T02:25:45;99166.63;;;6.20;100.00
59443;BME280;45247;47.466;19.004;2023-01-09T02:28:46;99169.34;;;6.19;100.00
59443;BME280;45247;47.466;19.004;2023-01-09T02:31:23;99166.56;;;6.22;100.00
59443;BME280;45247;47.466;19.004;2023-01-09T02:33:59;99162.16;;;6.22;100.00
59443;BME280;45247;47.466;19.004;2023-01-09T02:36:32;99167.31;;;6.24;100.00
59443;BME280;45247;47.466;19.004;2023-01-09T02:39:19;99157.66;;;6.24;100.00
59443;BME280;45247;47.466;19.004;2023-01-09T02:41:52;99161.13;;;6.25;100.00
59443;BME280;45247;47.466;19.004;2023-01-09T02:44:23;99156.09;;;6.22;100.00
59443;BME280;45247;47.466;19.004;2023-01-09T02:47:01;99150.84;;;6.22;100.00
59443;BME280;45247;47.466;19.004;2023-01-09T02:49:31;99151.59;;;6.24;100.00
59443;BME280;45247;47.466;19.004;2023-01-09T02:52:08;99149.75;;;6.26;100.00
59443;BME280;45247;47.466;19.004;2023-01-09T02:54:49;99142.63;;;6.28;100.00
59443;BME280;45247;47.466;19.004;2023-01-09T02:57:32;99129.53;;;6.28;100.00
59443;BME280;45247;47.466;19.004;2023-01-09T03:00:11;99133.69;;;6.32;100.00
59443;BME280;45247;47.466;19.004;2023-01-09T03:02:47;99131.41;;;6.26;100.00
59443;BME280;45247;47.466;19.004;2023-01-09T03:05:21;99122.69;;;6.25;100.00
59443;BME280;45247;47.466;19.004;2023-01-09T03:07:56;99121.84;;;6.25;100.00
59443;BME280;45247;47.466;19.004;2023-01-09T03:10:30;99127.84;;;6.27;100.00
59443;BME280;45247;47.466;19.004;2023-01-09T03:13:01;99112.44;;;6.21;100.00
59443;BME280;45247;47.466;19.004;2023-01-09T03:15:32;99125.47;;;6.22;100.00
59443;BME280;45247;47.466;19.004;2023-01-09T03:18:03;99122.00;;;6.22;100.00
59443;BME280;45247;47.466;19.004;2023-01-09T03:20:34;99126.22;;;6.24;100.00
59443;BME280;45247;47.466;19.004;2023-01-09T03:23:05;99116.59;;;6.25;100.00
59443;BME280;45247;47.466;19.004;2023-01-09T03:25:33;99121.09;;;6.23;100.00
59443;BME280;45247;47.466;19.004;2023-01-09T03:28:05;99116.78;;;6.22;100.00
59443;BME280;45247;47.466;19.004;2023-01-09T03:30:35;99108.81;;;6.23;100.00
59443;BME280;45247;47.466;19.004;2023-01-09T03:33:04;99112.22;;;6.25;100.00
59443;BME280;45247;47.466;19.004;2023-01-09T03:35:33;99107.97;;;6.23;100.00
59443;BME280;45247;47.466;19.004;2023-01-09T03:38:01;99104.25;;;6.27;100.00
59443;BME280;45247;47.466;19.004;2023-01-09T03:40:30;99106.78;;;6.28;100.00
59443;BME280;45247;47.466;19.004;2023-01-09T03:42:58;99100.72;;;6.28;100.00
59443;BME280;45247;47.466;19.004;2023-01-09T03:45:26;99088.78;;;6.22;100.00
59443;BME280;45247;47.466;19.004;2023-01-09T03:47:54;99096.50;;;6.25;100.00
59443;BME280;45247;47.466;19.004;2023-01-09T03:50:25;99087.03;;;6.23;100.00
59443;BME280;45247;47.466;19.004;2023-01-09T03:52:53;99086.25;;;6.21;100.00
59443;BME280;45247;47.466;19.004;2023-01-09T03:55:22;99090.72;;;6.19;100.00
59443;BME280;45247;47.466;19.004;2023-01-09T03:57:50;99087.94;;;6.22;100.00
59443;BME280;45247;47.466;19.004;2023-01-09T04:00:19;99100.88;;;6.25;100.00
59443;BME280;45247;47.466;19.004;2023-01-09T04:02:48;99095.47;;;6.28;100.00
59443;BME280;45247;47.466;19.004;2023-01-09T04:05:16;99087.69;;;6.26;100.00
59443;BME280;45247;47.466;19.004;2023-01-09T04:07:45;99090.31;;;6.26;100.00
59443;BME280;45247;47.466;19.004;2023-01-09T04:10:14;99095.47;;;6.28;100.00
59443;BME280;45247;47.466;19.004;2023-01-09T04:12:42;99092.78;;;6.30;100.00
59443;BME280;45247;47.466;19.004;2023-01-09T04:15:10;99095.47;;;6.28;100.00
59443;BME280;45247;47.466;19.004;2023-01-09T04:17:39;99094.78;;;6.24;100.00
59443;BME280;45247;47.466;19.004;2023-01-09T04:20:08;99087.19;;;6.20;100.00
59443;BME280;45247;47.466;19.004;2023-01-09T04:22:36;99089.47;;;6.26;100.00
59443;BME280;45247;47.466;19.004;2023-01-09T04:25:07;99090.56;;;6.22;100.00
59443;BME280;45247;47.466;19.004;2023-01-09T04:27:35;99097.16;;;6.29;100.00
59443;BME280;45247;47.466;19.004;2023-01-09T04:30:04;99095.47;;;6.28;100.00
59443;BME280;45247;47.466;19.004;2023-01-09T04:32:32;99100.72;;;6.28;100.00
59443;BME280;45247;47.466;19.004;2023-01-09T04:35:02;99099.88;;;6.27;100.00
59443;BME280;45247;47.466;19.004;2023-01-09T04:37:30;99100.72;;;6.28;100.00
59443;BME280;45247;47.466;19.004;2023-01-09T04:39:58;99099.19;;;6.24;100.00
59443;BME280;45247;47.466;19.004;2023-01-09T04:42:28;99093.09;;;6.23;100.00
59443;BME280;45247;47.466;19.004;2023-01-09T04:44:56;99094.09;;;6.21;100.00
59443;BME280;45247;47.466;19.004;2023-01-09T04:47:25;99100.03;;;6.24;100.00
59443;BME280;45247;47.466;19.004;2023-01-09T04:49:53;99095.81;;;6.22;100.00
59443;BME280;45247;47.466;19.004;2023-01-09T04:52:21;99095.88;;;6.20;100.00
59443;BME280;45247;47.466;19.004;2023-01-09T04:54:49;99093.34;;;6.19;100.00
59443;BME280;45247;47.466;19.004;2023-01-09T04:57:18;99089.97;;;6.17;100.00
59443;BME280;45247;47.466;19.004;2023-01-09T04:59:48;99088.38;;;6.14;100.00
59443;BME280;45247;47.466;19.004;2023-01-09T05:02:17;99100.53;;;6.15;100.00
59443;BME280;45247;47.466;19.004;2023-01-09T05:04:45;99099.84;;;6.12;100.00
59443;BME280;45247;47.466;19.004;2023-01-09T05:07:14;99098.75;;;6.16;100.00
59443;BME280;45247;47.466;19.004;2023-01-09T05:09:42;99092.91;;;6.11;100.00
59443;BME280;45247;47.466;19.004;2023-01-09T05:12:10;99088.28;;;6.16;100.00
59443;BME280;45247;47.466;19.004;2023-01-09T05:14:38;99098.59;;;6.19;100.00
59443;BME280;45247;47.466;19.004;2023-01-09T05:17:08;99083.81;;;6.18;100.00
59443;BME280;45247;47.466;19.004;2023-01-09T05:19:36;99087.38;;;6.17;100.00
59443;BME280;45247;47.466;19.004;2023-01-09T05:22:04;99085.66;;;6.16;100.00
59443;BME280;45247;47.466;19.004;2023-01-09T05:24:33;99077.09;;;6.12;100.00
59443;BME280;45247;47.466;19.004;2023-01-09T05:27:01;99073.84;;;6.09;100.00
59443;BME280;45247;47.466;19.004;2023-01-09T05:29:29;99077.97;;;6.13;100.00
59443;BME280;45247;47.466;19.004;2023-01-09T05:31:57;99059.78;;;6.10;100.00
59443;BME280;45247;47.466;19.004;2023-01-09T05:34:27;99079.50;;;6.17;100.00
59443;BME280;45247;47.466;19.004;2023-01-09T05:36:55;99071.66;;;6.17;100.00
59443;BME280;45247;47.466;19.004;2023-01-09T05:39:23;99081.25;;;6.16;100.00
59443;BME280;45247;47.466;19.004;2023-01-09T05:41:51;99077.78;;;6.16;100.00
59443;BME280;45247;47.466;19.004;2023-01-09T05:44:20;99079.56;;;6.15;100.00
59443;BME280;45247;47.466;19.004;2023-01-09T05:46:48;99082.53;;;6.09;100.00
59443;BME280;45247;47.466;19.004;2023-01-09T05:49:16;99091.16;;;6.11;100.00
59443;BME280;45247;47.466;19.004;2023-01-09T05:51:45;99089.38;;;6.12;100.00
59443;BME280;45247;47.466;19.004;2023-01-09T05:54:14;99077.09;;;6.12;100.00
59443;BME280;45247;47.466;19.004;2023-01-09T05:56:42;99074.31;;;6.15;100.00
59443;BME280;45247;47.466;19.004;2023-01-09T05:59:10;99076.88;;;6.17;100.00
59443;BME280;45247;47.466;19.004;2023-01-09T06:01:38;99081.19;;;6.18;100.00
59443;BME280;45247;47.466;19.004;2023-01-09T06:04:06;99072.56;;;6.16;100.00
59443;BME280;45247;47.466;19.004;2023-01-09T06:06:34;99080.16;;;6.20;100.00
59443;BME280;45247;47.466;19.004;2023-01-09T06:09:04;99078.38;;;6.21;100.00
59443;BME280;45247;47.466;19.004;2023-01-09T06:11:32;99071.28;;;6.23;100.00
59443;BME280;45247;47.466;19.004;2023-01-09T06:14:01;99075.75;;;6.21;100.00
59443;BME280;45247;47.466;19.004;2023-01-09T06:16:29;99082.78;;;6.20;100.00
59443;BME280;45247;47.466;19.004;2023-01-09T06:18:58;99085.00;;;6.28;100.00
59443;BME280;45247;47.466;19.004;2023-01-09T06:21:26;99087.34;;;6.33;100.00
59443;BME280;45247;47.466;19.004;2023-01-09T06:23:55;99102.22;;;6.32;100.00
59443;BME280;45247;47.466;19.004;2023-01-09T06:26:25;99085.56;;;6.33;100.00
59443;BME280;45247;47.466;19.004;2023-01-09T06:28:53;99089.03;;;6.34;100.00
59443;BME280;45247;47.466;19.004;2023-01-09T06:31:22;99100.38;;;6.34;100.00
59443;BME280;45247;47.466;19.004;2023-01-09T06:33:51;99114.41;;;6.33;100.00
59443;BME280;45247;47.466;19.004;2023-01-09T06:36:19;99105.78;;;6.31;100.00
59443;BME280;45247;47.466;19.004;2023-01-09T06:38:48;99107.47;;;6.32;100.00
59443;BME280;45247;47.466;19.004;2023-01-09T06:41:16;99103.91;;;6.33;100.00
59443;BME280;45247;47.466;19.004;2023-01-09T06:43:46;99106.28;;;6.38;100.00
59443;BME280;45247;47.466;19.004;2023-01-09T06:46:14;99110.09;;;6.32;100.00
59443;BME280;45247;47.466;19.004;2023-01-09T06:48:42;99115.44;;;6.31;100.00
59443;BME280;45247;47.466;19.004;2023-01-09T06:51:10;99112.88;;;6.29;100.00
59443;BME280;45247;47.466;19.004;2023-01-09T06:53:38;99103.25;;;6.30;100.00
59443;BME280;45247;47.466;19.004;2023-01-09T06:56:06;99105.00;;;6.29;100.00
59443;BME280;45247;47.466;19.004;2023-01-09T06:58:34;99101.81;;;6.24;100.00
59443;BME280;45247;47.466;19.004;2023-01-09T07:01:04;99100.88;;;6.25;100.00
59443;BME280;45247;47.466;19.004;2023-01-09T07:03:32;99097.50;;;6.23;100.00
59443;BME280;45247;47.466;19.004;2023-01-09T07:06:00;99103.16;;;6.15;100.00
59443;BME280;45247;47.466;19.004;2023-01-09T07:08:29;99111.00;;;6.15;100.00
59443;BME280;45247;47.466;19.004;2023-01-09T07:10:57;99110.31;;;6.12;100.00
59443;BME280;45247;47.466;19.004;2023-01-09T07:13:25;99098.00;;;6.14;100.00
59443;BME280;45247;47.466;19.004;2023-01-09T07:15:53;99099.19;;;6.08;100.00
59443;BME280;45247;47.466;19.004;2023-01-09T07:18:23;99098.31;;;6.08;100.00
59443;BME280;45247;47.466;19.004;2023-01-09T07:20:51;99107.94;;;6.07;100.00
59443;BME280;45247;47.466;19.004;2023-01-09T07:23:19;99109.72;;;6.07;100.00
59443;BME280;45247;47.466;19.004;2023-01-09T07:25:49;99100.88;;;6.09;100.00
59443;BME280;45247;47.466;19.004;2023-01-09T07:28:18;99096.22;;;6.14;100.00
59443;BME280;45247;47.466;19.004;2023-01-09T07:30:46;99089.09;;;6.16;100.00
59443;BME280;45247;47.466;19.004;2023-01-09T07:33:14;99087.94;;;6.22;100.00
59443;BME280;45247;47.466;19.004;2023-01-09T07:35:44;99088.84;;;6.21;100.00
59443;BME280;45247;47.466;19.004;2023-01-09T07:38:12;99075.53;;;6.25;100.00
59443;BME280;45247;47.466;19.004;2023-01-09T07:40:40;99076.88;;;6.33;100.00
59443;BME280;45247;47.466;19.004;2023-01-09T07:43:08;99072.16;;;6.39;100.00
59443;BME280;45247;47.466;19.004;2023-01-09T07:45:36;99071.97;;;6.42;100.00
59443;BME280;45247;47.466;19.004;2023-01-09T07:48:05;99086.16;;;6.54;100.00
59443;BME280;45247;47.466;19.004;2023-01-09T07:50:33;99071.28;;;6.55;100.00
59443;BME280;45247;47.466;19.004;2023-01-09T07:53:03;99070.78;;;6.64;100.00
59443;BME280;45247;47.466;19.004;2023-01-09T07:55:31;99072.47;;;6.65;100.00
59443;BME280;45247;47.466;19.004;2023-01-09T07:57:59;99063.50;;;6.69;100.00
59443;BME280;45247;47.466;19.004;2023-01-09T08:00:27;99058.06;;;6.72;100.00
59443;BME280;45247;47.466;19.004;2023-01-09T08:02:58;99059.16;;;6.68;100.00
59443;BME280;45247;47.466;19.004;2023-01-09T08:05:26;99050.31;;;6.55;100.00
59443;BME280;45247;47.466;19.004;2023-01-09T08:07:55;99066.03;;;6.55;100.00
59443;BME280;45247;47.466;19.004;2023-01-09T08:10:24;99062.66;;;6.52;100.00
59443;BME280;45247;47.466;19.004;2023-01-09T08:12:52;99059.63;;;6.44;100.00
59443;BME280;45247;47.466;19.004;2023-01-09T08:15:21;99059.78;;;6.41;100.00
59443;BME280;45247;47.466;19.004;2023-01-09T08:17:49;99044.75;;;6.29;100.00
59443;BME280;45247;47.466;19.004;2023-01-09T08:20:17;99060.41;;;6.31;100.00
59443;BME280;45247;47.466;19.004;2023-01-09T08:22:46;99064.97;;;6.27;100.00
59443;BME280;45247;47.466;19.004;2023-01-09T08:25:16;99078.06;;;6.27;100.00
59443;BME280;45247;47.466;19.004;2023-01-09T08:27:46;99104.41;;;6.24;100.00
59443;BME280;45247;47.466;19.004;2023-01-09T08:30:15;99072.13;;;6.23;100.00
59443;BME280;45247;47.466;19.004;2023-01-09T08:32:53;99064.88;;;6.13;100.00
59443;BME280;45247;47.466;19.004;2023-01-09T08:35:22;99050.41;;;6.06;100.00
59443;BME280;45247;47.466;19.004;2023-01-09T08:37:50;99059.28;;;6.03;100.00
59443;BME280;45247;47.466;19.004;2023-01-09T08:40:18;99068.91;;;6.02;100.00
59443;BME280;45247;47.466;19.004;2023-01-09T08:42:48;99078.53;;;6.02;100.00
59443;BME280;45247;47.466;19.004;2023-01-09T08:45:34;99079.38;;;6.02;100.00
59443;BME280;45247;47.466;19.004;2023-01-09T08:48:19;99075.19;;;6.00;100.00
59443;BME280;45247;47.466;19.004;2023-01-09T08:50:47;99068.75;;;6.06;100.00
59443;BME280;45247;47.466;19.004;2023-01-09T08:53:16;99082.78;;;6.05;100.00
59443;BME280;45247;47.466;19.004;2023-01-09T08:55:45;99076.03;;;6.00;100.00
59443;BME280;45247;47.466;19.004;2023-01-09T08:58:14;99072.03;;;5.93;100.00
59443;BME280;45247;47.466;19.004;2023-01-09T09:00:42;99060.72;;;5.93;100.00
59443;BME280;45247;47.466;19.004;2023-01-09T09:03:10;99058.84;;;5.95;100.00
59443;BME280;45247;47.466;19.004;2023-01-09T09:05:39;99053.16;;;5.87;100.00
59443;BME280;45247;47.466;19.004;2023-01-09T09:08:07;99035.03;;;5.82;100.00
59443;BME280;45247;47.466;19.004;2023-01-09T09:10:35;99036.06;;;5.80;100.00
59443;BME280;45247;47.466;19.004;2023-01-09T09:13:03;99036.13;;;5.78;100.00
59443;BME280;45247;47.466;19.004;2023-01-09T09:15:33;99033.63;;;5.76;100.00
59443;BME280;45247;47.466;19.004;2023-01-09T09:18:05;99033.88;;;5.72;100.00
59443;BME280;45247;47.466;19.004;2023-01-09T09:20:36;99038.09;;;5.74;100.00
59443;BME280;45247;47.466;19.004;2023-01-09T09:23:05;99040.19;;;5.68;100.00
59443;BME280;45247;47.466;19.004;2023-01-09T09:25:34;99032.34;;;5.68;100.00
59443;BME280;45247;47.466;19.004;2023-01-09T09:28:04;99026.25;;;5.67;100.00
59443;BME280;45247;47.466;19.004;2023-01-09T09:30:34;99033.19;;;5.68;100.00
59443;BME280;45247;47.466;19.004;2023-01-09T09:33:02;99017.97;;;5.59;100.00
59443;BME280;45247;47.466;19.004;2023-01-09T09:35:31;99026.59;;;5.61;100.00
59443;BME280;45247;47.466;19.004;2023-01-09T09:38:01;99027.44;;;5.62;100.00
59443;BME280;45247;47.466;19.004;2023-01-09T09:40:41;99025.72;;;5.61;100.00
59443;BME280;45247;47.466;19.004;2023-01-09T09:43:26;99016.19;;;5.60;100.00
59443;BME280;45247;47.466;19.004;2023-01-09T09:46:27;99016.03;;;5.63;100.00
59443;BME280;45247;47.466;19.004;2023-01-09T09:49:02;99013.91;;;5.53;100.00
59443;BME280;45247;47.466;19.004;2023-01-09T09:54:31;99014.41;;;5.44;100.00
59443;BME280;45247;47.466;19.004;2023-01-09T09:57:04;99016.31;;;5.41;100.00
59443;BME280;45247;47.466;19.004;2023-01-09T09:59:35;99014.69;;;5.38;100.00
59443;BME280;45247;47.466;19.004;2023-01-09T10:02:22;99004.22;;;5.38;100.00
59443;BME280;45247;47.466;19.004;2023-01-09T10:04:57;99012.22;;;5.35;100.00
59443;BME280;45247;47.466;19.004;2023-01-09T10:07:29;99007.44;;;5.43;100.00
59443;BME280;45247;47.466;19.004;2023-01-09T10:09:59;99007.53;;;5.42;100.00
59443;BME280;45247;47.466;19.004;2023-01-09T10:12:32;99010.00;;;5.45;100.00
59443;BME280;45247;47.466;19.004;2023-01-09T10:15:14;98993.06;;;5.35;100.00
59443;BME280;45247;47.466;19.004;2023-01-09T10:17:55;98992.72;;;5.25;100.00
59443;BME280;45247;47.466;19.004;2023-01-09T10:20:41;98979.97;;;5.19;100.00
59443;BME280;45247;47.466;19.004;2023-01-09T10:23:29;98998.66;;;5.28;100.00
59443;BME280;45247;47.466;19.004;2023-01-09T10:26:04;98985.22;;;5.19;100.00
59443;BME280;45247;47.466;19.004;2023-01-09T10:28:48;98981.31;;;5.26;100.00
59443;BME280;45247;47.466;19.004;2023-01-09T10:31:25;98973.47;;;5.26;100.00
59443;BME280;45247;47.466;19.004;2023-01-09T10:34:10;98973.56;;;5.24;100.00
59443;BME280;45247;47.466;19.004;2023-01-09T10:36:54;98966.41;;;5.28;100.00
59443;BME280;45247;47.466;19.004;2023-01-09T10:39:32;98966.06;;;5.18;100.00
59443;BME280;45247;47.466;19.004;2023-01-09T10:42:10;98969.81;;;5.13;100.00
59443;BME280;45247;47.466;19.004;2023-01-09T10:44:45;98973.91;;;5.01;100.00
59443;BME280;45247;47.466;19.004;2023-01-09T10:47:18;98969.38;;;4.87;100.00
59443;BME280;45247;47.466;19.004;2023-01-09T10:49:51;98963.03;;;4.75;100.00
59443;BME280;45247;47.466;19.004;2023-01-09T10:52:25;98957.09;;;4.89;100.00
59443;BME280;45247;47.466;19.004;2023-01-09T10:55:01;98947.38;;;4.91;100.00
59443;BME280;45247;47.466;19.004;2023-01-09T10:57:40;98953.22;;;4.79;100.00
59443;BME280;45247;47.466;19.004;2023-01-09T11:00:17;98935.88;;;4.78;100.00
59443;BME280;45247;47.466;19.004;2023-01-09T11:02:49;98928.47;;;4.86;100.00
59443;BME280;45247;47.466;19.004;2023-01-09T11:05:22;98921.41;;;4.88;100.00
59443;BME280;45247;47.466;19.004;2023-01-09T11:07:55;98925.31;;;4.97;100.00
59443;BME280;45247;47.466;19.004;2023-01-09T11:10:43;98919.66;;;5.05;100.00
59443;BME280;45247;47.466;19.004;2023-01-09T11:13:13;98907.97;;;5.12;100.00
59443;BME280;45247;47.466;19.004;2023-01-09T11:15:42;98913.09;;;5.13;100.00
59443;BME280;45247;47.466;19.004;2023-01-09T11:18:19;98900.66;;;5.18;100.00
59443;BME280;45247;47.466;19.004;2023-01-09T11:20:49;98900.56;;;5.20;100.00
59443;BME280;45247;47.466;19.004;2023-01-09T11:23:27;98900.41;;;5.23;100.00
59443;BME280;45247;47.466;19.004;2023-01-09T11:25:57;98905.38;;;5.27;100.00
59443;BME280;45247;47.466;19.004;2023-01-09T11:28:26;98906.13;;;5.30;100.00
59443;BME280;45247;47.466;19.004;2023-01-09T11:30:57;98905.31;;;5.29;100.00
59443;BME280;45247;47.466;19.004;2023-01-09T11:33:28;98903.78;;;5.25;100.00
59443;BME280;45247;47.466;19.004;2023-01-09T11:36:01;98908.84;;;5.28;100.00
59443;BME280;45247;47.466;19.004;2023-01-09T11:38:37;98906.28;;;5.26;100.00
59443;BME280;45247;47.466;19.004;2023-01-09T11:41:17;98888.22;;;5.22;100.00
59443;BME280;45247;47.466;19.004;2023-01-09T11:43:47;98887.34;;;5.23;100.00
59443;BME280;45247;47.466;19.004;2023-01-09T11:46:37;98886.16;;;5.28;100.00
59443;BME280;45247;47.466;19.004;2023-01-09T11:49:20;98885.75;;;5.36;100.00
59443;BME280;45247;47.466;19.004;2023-01-09T11:52:12;98881.59;;;5.48;100.00
59443;BME280;45247;47.466;19.004;2023-01-09T11:54:44;98884.81;;;5.53;100.00
59443;BME280;45247;47.466;19.004;2023-01-09T11:57:14;98884.56;;;5.58;100.00
59443;BME280;45247;47.466;19.004;2023-01-09T11:59:43;98891.47;;;5.59;100.00
59443;BME280;45247;47.466;19.004;2023-01-09T12:02:37;98881.75;;;5.61;100.00
59443;BME280;45247;47.466;19.004;2023-01-09T12:05:19;98870.19;;;5.65;100.00
59443;BME280;45247;47.466;19.004;2023-01-09T12:08:10;98869.34;;;5.64;100.00
59443;BME280;45247;47.466;19.004;2023-01-09T12:10:48;98865.63;;;5.68;100.00
59443;BME280;45247;47.466;19.004;2023-01-09T12:13:32;98865.81;;;5.65;100.00
59443;BME280;45247;47.466;19.004;2023-01-09T12:16:10;98849.19;;;5.66;100.00
59443;BME280;45247;47.466;19.004;2023-01-09T12:18:56;98850.59;;;5.72;100.00
59443;BME280;45247;47.466;19.004;2023-01-09T12:21:35;98855.84;;;5.72;100.00
59443;BME280;45247;47.466;19.004;2023-01-09T12:27:11;98858.81;;;5.66;100.00
59443;BME280;45247;47.466;19.004;2023-01-09T12:30:03;98860.66;;;5.64;100.00
59443;BME280;45247;47.466;19.004;2023-01-09T12:32:49;98857.28;;;5.62;100.00
59443;BME280;45247;47.466;19.004;2023-01-09T12:35:30;98858.38;;;5.58;100.00
59443;BME280;45247;47.466;19.004;2023-01-09T12:38:14;98845.72;;;5.66;100.00
59443;BME280;45247;47.466;19.004;2023-01-09T12:41:18;98838.78;;;5.65;100.00
59443;BME280;45247;47.466;19.004;2023-01-09T12:44:08;98835.16;;;5.67;100.00
59443;BME280;45247;47.466;19.004;2023-01-09T12:47:12;98827.97;;;5.71;100.00
59443;BME280;45247;47.466;19.004;2023-01-09T12:49:43;98830.50;;;5.72;100.00
59443;BME280;45247;47.466;19.004;2023-01-09T12:52:20;98822.56;;;5.74;100.00
59443;BME280;45247;47.466;19.004;2023-01-09T12:54:54;98826.88;;;5.75;100.00
59443;BME280;45247;47.466;19.004;2023-01-09T12:57:29;98820.69;;;5.76;100.00
59443;BME280;45247;47.466;19.004;2023-01-09T13:00:03;98805.50;;;5.67;100.00
59443;BME280;45247;47.466;19.004;2023-01-09T13:02:35;98801.22;;;5.66;100.00
59443;BME280;45247;47.466;19.004;2023-01-09T13:05:09;98805.63;;;5.65;100.00
59443;BME280;45247;47.466;19.004;2023-01-09T13:07:45;98802.91;;;5.67;100.00
59443;BME280;45247;47.466;19.004;2023-01-09T13:10:19;98798.78;;;5.63;100.00
59443;BME280;45247;47.466;19.004;2023-01-09T13:12:51;98802.06;;;5.66;100.00
59443;BME280;45247;47.466;19.004;2023-01-09T13:15:27;98799.50;;;5.65;100.00
59443;BME280;45247;47.466;19.004;2023-01-09T13:18:00;98799.88;;;5.59;100.00
59443;BME280;45247;47.466;19.004;2023-01-09T13:20:34;98796.88;;;5.65;100.00
59443;BME280;45247;47.466;19.004;2023-01-09T13:23:05;98803.63;;;5.69;100.00